Time;durP1;ratioP1;P1;durP2;ratioP2;P2;SDS_P1;SDS_P2;PMS_P1;PMS_P2;Temp;Humidity;BMP_temperature;BMP_pressure;BME280_temperature;BME280_humidity;BME280_pressure;Samples;Min_cycle;Max_cycle;Signal;HPM_P1;HPM_P2
2021/12/08 00:02:52;;;;;;;4.63;1.95;;;6.00;91.10;;;;;;10126221;28;20080;-68
2021/12/08 00:07:45;;;;;;;4.78;1.85;;;6.00;91.10;;;;;;10126734;28;20377;-68
2021/12/08 00:17:45;;;;;;;4.55;2.55;;;5.90;91.20;;;;;;10129365;28;20291;-69
2021/12/08 00:22:36;;;;;;;2.75;1.77;;;5.90;91.30;;;;;;10128164;28;20294;-68
2021/12/08 00:27:37;;;;;;;5.45;2.75;;;5.90;91.40;;;;;;10116892;28;20168;-70
2021/12/08 00:32:44;;;;;;;5.30;2.58;;;6.00;91.30;;;;;;10129725;28;20021;-69
2021/12/08 00:37:35;;;;;;;2.42;1.63;;;5.90;91.40;;;;;;10119700;28;20147;-69
2021/12/08 00:42:26;;;;;;;2.88;2.13;;;5.90;91.50;;;;;;10121672;28;20387;-68
2021/12/08 00:47:17;;;;;;;3.88;2.00;;;5.80;91.70;;;;;;10128592;28;20047;-67
2021/12/08 00:52:08;;;;;;;3.88;2.20;;;5.80;91.70;;;;;;10122733;28;20027;-68
2021/12/08 00:57:00;;;;;;;5.05;2.92;;;5.90;91.70;;;;;;10124416;28;20609;-68
2021/12/08 01:01:52;;;;;;;2.58;2.15;;;5.80;91.80;;;;;;10129757;28;20140;-68
2021/12/08 01:06:43;;;;;;;3.85;2.72;;;5.90;91.70;;;;;;10126963;28;20062;-68
2021/12/08 01:11:34;;;;;;;5.03;2.10;;;5.90;91.80;;;;;;10125135;28;20096;-68
2021/12/08 01:16:25;;;;;;;3.25;2.30;;;5.90;91.90;;;;;;10123645;28;20147;-68
2021/12/08 01:21:18;;;;;;;3.50;2.25;;;5.90;91.90;;;;;;10123978;28;20048;-68
2021/12/08 01:26:09;;;;;;;3.67;1.90;;;5.80;92.10;;;;;;10126094;28;20036;-68
2021/12/08 01:31:01;;;;;;;3.30;2.00;;;5.90;92.10;;;;;;10132608;28;20539;-67
2021/12/08 01:35:52;;;;;;;4.57;2.22;;;5.90;92.10;;;;;;10153220;28;20433;-68
2021/12/08 01:40:43;;;;;;;2.38;1.67;;;5.90;92.10;;;;;;10138629;28;20121;-68
2021/12/08 01:50:47;;;;;;;4.25;2.75;;;5.90;92.30;;;;;;10133591;28;20454;-68
2021/12/08 01:55:39;;;;;;;7.82;2.40;;;5.90;92.30;;;;;;10139734;28;20091;-69
2021/12/08 02:00:35;;;;;;;5.65;1.92;;;5.90;92.40;;;;;;10139761;28;20542;-69
2021/12/08 02:05:29;;;;;;;4.85;2.58;;;5.90;92.50;;;;;;10137147;28;20048;-69
2021/12/08 02:10:21;;;;;;;4.50;2.70;;;5.90;92.50;;;;;;10134957;28;20096;-69
2021/12/08 02:15:14;;;;;;;3.42;2.30;;;5.90;92.50;;;;;;10135060;28;20381;-68
2021/12/08 02:20:07;;;;;;;3.33;2.50;;;5.90;92.70;;;;;;10133066;28;20095;-69
2021/12/08 02:24:57;;;;;;;3.60;2.35;;;5.90;92.70;;;;;;10140007;28;20040;-68
2021/12/08 02:29:56;;;;;;;4.20;2.20;;;5.90;92.80;;;;;;10137357;28;20382;-68
2021/12/08 02:50:20;;;;;;;4.78;2.53;;;5.90;93.00;;;;;;10131134;28;20514;-67
2021/12/08 02:55:10;;;;;;;7.25;3.22;;;5.80;93.10;;;;;;10133718;28;20060;-69
2021/12/08 03:00:10;;;;;;;4.07;1.95;;;5.70;93.10;;;;;;10139735;28;20033;-69
2021/12/08 03:05:01;;;;;;;4.85;2.33;;;5.70;93.60;;;;;;10136703;28;20064;-69
2021/12/08 03:09:52;;;;;;;5.80;2.67;;;5.70;93.20;;;;;;10135029;28;20031;-68
2021/12/08 03:14:44;;;;;;;3.53;1.70;;;5.80;93.30;;;;;;10137330;28;20127;-68
2021/12/08 03:19:36;;;;;;;4.03;1.83;;;5.80;93.30;;;;;;10131406;28;20040;-68
2021/12/08 03:24:34;;;;;;;3.55;2.20;;;5.80;93.30;;;;;;10136016;28;20175;-68
2021/12/08 03:29:31;;;;;;;3.78;2.47;;;5.70;93.40;;;;;;10134607;28;20110;-68
2021/12/08 03:34:25;;;;;;;3.33;2.40;;;5.80;93.40;;;;;;10128961;28;20036;-68
2021/12/08 03:39:16;;;;;;;3.35;2.42;;;5.80;93.40;;;;;;10130003;28;20588;-68
2021/12/08 03:44:07;;;;;;;2.67;2.33;;;5.80;93.40;;;;;;10125327;28;20494;-68
2021/12/08 03:49:00;;;;;;;5.35;2.65;;;5.80;93.40;;;;;;10131534;28;20025;-68
2021/12/08 03:53:50;;;;;;;3.88;2.35;;;5.80;93.50;;;;;;10127653;28;20063;-69
2021/12/08 03:58:41;;;;;;;3.20;2.22;;;5.90;93.50;;;;;;10129362;28;20021;-69
2021/12/08 04:03:33;;;;;;;4.35;2.28;;;5.90;93.50;;;;;;10128596;28;20036;-68
2021/12/08 04:08:41;;;;;;;3.80;2.45;;;5.90;93.70;;;;;;10130707;28;20016;-67
2021/12/08 04:13:57;;;;;;;4.85;2.28;;;5.80;93.80;;;;;;10122393;28;20041;-68
2021/12/08 04:18:48;;;;;;;3.85;2.53;;;5.90;93.70;;;;;;10126831;28;20557;-68
2021/12/08 04:23:40;;;;;;;2.55;1.85;;;5.90;93.80;;;;;;10125670;28;20097;-67
2021/12/08 04:28:34;;;;;;;3.05;2.20;;;6.00;93.80;;;;;;10127596;28;20093;-68
2021/12/08 04:33:25;;;;;;;5.28;2.35;;;6.00;93.80;;;;;;10127816;28;20123;-68
2021/12/08 04:38:23;;;;;;;4.75;2.67;;;6.10;93.80;;;;;;10126591;28;20437;-68
2021/12/08 04:49:03;;;;;;;5.22;2.70;;;6.10;93.90;;;;;;10126193;28;20430;-69
2021/12/08 05:08:55;;;;;;;4.07;2.42;;;6.20;93.90;;;;;;10125766;28;20625;-68
2021/12/08 05:13:53;;;;;;;6.50;2.50;;;6.20;94.10;;;;;;10125179;28;20123;-68
2021/12/08 05:18:46;;;;;;;3.50;1.95;;;6.20;94.00;;;;;;10123098;28;20277;-68
2021/12/08 05:23:58;;;;;;;4.85;2.92;;;6.20;94.10;;;;;;10121253;28;20063;-68
2021/12/08 05:28:49;;;;;;;3.72;2.42;;;6.20;94.20;;;;;;10126344;28;20090;-68
2021/12/08 05:33:42;;;;;;;4.03;2.33;;;6.20;94.20;;;;;;10126016;28;20025;-68
2021/12/08 05:38:34;;;;;;;5.60;2.33;;;6.20;94.50;;;;;;10127033;28;20024;-68
2021/12/08 05:43:25;;;;;;;2.97;2.53;;;6.20;94.30;;;;;;10124253;28;20082;-68
2021/12/08 05:48:17;;;;;;;4.70;2.30;;;6.20;94.50;;;;;;10124519;28;20561;-68
2021/12/08 05:53:08;;;;;;;4.43;2.53;;;6.30;94.40;;;;;;10123356;28;20592;-69
2021/12/08 05:58:00;;;;;;;3.13;2.35;;;6.30;94.30;;;;;;10126509;28;20087;-68
2021/12/08 06:02:52;;;;;;;6.10;3.72;;;6.30;94.40;;;;;;10122850;28;20198;-67
2021/12/08 06:07:44;;;;;;;5.07;2.50;;;6.30;94.40;;;;;;10122007;28;20048;-68
2021/12/08 06:12:35;;;;;;;5.28;2.83;;;6.30;94.50;;;;;;10115222;28;20648;-67
2021/12/08 06:17:29;;;;;;;3.28;1.95;;;6.20;94.50;;;;;;10124824;28;20124;-68
2021/12/08 06:22:23;;;;;;;5.65;3.70;;;6.20;94.60;;;;;;10130841;28;20116;-69
2021/12/08 06:27:14;;;;;;;2.97;2.17;;;6.20;94.60;;;;;;10131095;28;20042;-70
2021/12/08 06:32:08;;;;;;;4.40;2.83;;;6.20;94.90;;;;;;10131201;28;20395;-69
2021/12/08 06:37:04;;;;;;;5.03;3.08;;;6.20;94.80;;;;;;10132960;28;20032;-68
2021/12/08 06:42:01;;;;;;;3.78;2.42;;;6.20;94.90;;;;;;10124525;28;20031;-69
2021/12/08 06:46:53;;;;;;;3.35;2.50;;;6.30;94.90;;;;;;10132220;28;20171;-70
2021/12/08 06:52:00;;;;;;;5.38;3.30;;;6.30;94.90;;;;;;10130801;28;20352;-68
2021/12/08 06:56:56;;;;;;;5.80;3.47;;;6.30;94.90;;;;;;10130843;28;20807;-68
2021/12/08 07:02:20;;;;;;;4.13;2.42;;;6.40;94.90;;;;;;10128735;28;20025;-69
2021/12/08 07:07:12;;;;;;;4.00;2.40;;;6.40;95.00;;;;;;10128765;28;20052;-67
2021/12/08 07:12:50;;;;;;;3.67;2.30;;;6.40;95.00;;;;;;10129585;28;20029;-70
2021/12/08 07:17:45;;;;;;;5.95;2.85;;;6.40;95.10;;;;;;10121718;28;20049;-69
2021/12/08 07:22:36;;;;;;;4.20;2.15;;;6.40;95.20;;;;;;10129328;28;20024;-70
2021/12/08 07:27:31;;;;;;;4.97;2.78;;;6.30;95.30;;;;;;10125041;28;20152;-69
2021/12/08 07:32:28;;;;;;;4.57;2.63;;;6.40;95.30;;;;;;10128015;28;20119;-71
2021/12/08 07:37:24;;;;;;;4.88;2.92;;;6.40;95.30;;;;;;10090042;28;20032;-68
2021/12/08 07:42:39;;;;;;;4.95;2.17;;;6.40;95.40;;;;;;10132713;28;20021;-74
2021/12/08 07:47:33;;;;;;;5.40;2.93;;;6.30;95.50;;;;;;10132741;28;20616;-72
2021/12/08 07:52:33;;;;;;;7.28;2.97;;;6.40;95.50;;;;;;10126334;28;20032;-74
2021/12/08 07:57:29;;;;;;;5.93;3.10;;;6.30;95.60;;;;;;10128146;28;20394;-74
2021/12/08 08:02:25;;;;;;;4.10;2.55;;;6.40;95.60;;;;;;10127703;28;20285;-72
2021/12/08 08:07:16;;;;;;;6.47;2.60;;;6.40;95.70;;;;;;10124206;28;20095;-69
2021/12/08 08:12:11;;;;;;;5.55;2.67;;;6.40;95.70;;;;;;10126272;28;20035;-69
2021/12/08 08:17:03;;;;;;;4.93;3.13;;;6.50;95.60;;;;;;10127840;28;20240;-65
2021/12/08 08:21:59;;;;;;;5.90;3.17;;;6.50;95.60;;;;;;10126431;28;20168;-66
2021/12/08 08:26:52;;;;;;;5.53;3.08;;;6.60;95.70;;;;;;10129010;28;20038;-67
2021/12/08 08:31:58;;;;;;;5.60;3.05;;;6.50;95.70;;;;;;10128577;28;20079;-75
2021/12/08 08:36:50;;;;;;;5.40;2.63;;;6.60;95.80;;;;;;10138622;28;20386;-69
2021/12/08 08:42:01;;;;;;;5.90;3.22;;;6.50;96.00;;;;;;10129682;28;20033;-69
2021/12/08 08:46:54;;;;;;;3.83;2.38;;;6.50;96.00;;;;;;10130717;28;20028;-67
2021/12/08 08:51:59;;;;;;;7.90;2.85;;;6.60;96.00;;;;;;10129476;28;20035;-69
2021/12/08 08:56:57;;;;;;;5.50;2.50;;;6.60;96.00;;;;;;10127227;28;20027;-71
2021/12/08 09:01:54;;;;;;;4.38;2.30;;;6.60;95.90;;;;;;10125444;28;20029;-72
2021/12/08 09:06:48;;;;;;;3.65;2.97;;;6.70;96.00;;;;;;10126842;28;20035;-70
2021/12/08 09:11:49;;;;;;;4.85;2.85;;;6.70;96.00;;;;;;10126030;28;20029;-73
2021/12/08 09:16:45;;;;;;;3.85;2.63;;;6.80;96.00;;;;;;10121160;28;20041;-70
2021/12/08 09:21:41;;;;;;;;;;;6.80;95.90;;;;;;10123515;28;20080;-72
2021/12/08 09:26:35;;;;;;;4.40;1.88;;;6.80;96.00;;;;;;10125736;28;19977;-69
2021/12/08 09:31:40;;;;;;;3.75;2.75;;;6.90;95.90;;;;;;10127116;28;20086;-73
2021/12/08 09:36:43;;;;;;;6.55;2.85;;;6.90;96.00;;;;;;10116133;28;20499;-74
2021/12/08 09:41:44;;;;;;;4.25;2.45;;;7.00;95.90;;;;;;10137293;28;20510;-69
2021/12/08 09:46:42;;;;;;;6.07;3.65;;;7.10;95.90;;;;;;10122388;28;20040;-70
2021/12/08 09:51:34;;;;;;;4.45;2.28;;;7.20;95.80;;;;;;10137482;28;20122;-75
2021/12/08 09:56:26;;;;;;;3.95;2.85;;;7.10;96.00;;;;;;10132284;28;20036;-74
2021/12/08 10:01:20;;;;;;;4.60;2.40;;;7.20;96.00;;;;;;10135748;28;20037;-75
2021/12/08 10:06:12;;;;;;;4.03;2.20;;;7.10;96.00;;;;;;10134657;28;20032;-72
2021/12/08 10:11:03;;;;;;;3.05;1.83;;;7.10;96.10;;;;;;10132707;28;20121;-74
2021/12/08 10:15:54;;;;;;;2.95;1.90;;;7.10;96.00;;;;;;10131204;28;20119;-70
2021/12/08 10:20:51;;;;;;;2.05;1.65;;;7.10;96.10;;;;;;10130785;28;20135;-77
2021/12/08 10:25:54;;;;;;;2.47;1.60;;;7.10;96.10;;;;;;10132486;28;20124;-74
2021/12/08 10:30:55;;;;;;;6.35;1.75;;;7.20;96.10;;;;;;10129715;28;20024;-74
2021/12/08 10:35:48;;;;;;;2.42;1.58;;;7.20;96.00;;;;;;10132819;28;20372;-73
2021/12/08 10:41:00;;;;;;;3.45;1.27;;;7.20;96.00;;;;;;10130596;28;20032;-74
2021/12/08 10:46:04;;;;;;;2.78;1.95;;;7.20;96.00;;;;;;10133268;28;21138;-75
2021/12/08 10:56:07;;;;;;;2.00;1.33;;;7.20;96.10;;;;;;10130356;28;20584;-70
2021/12/08 11:01:16;;;;;;;4.55;2.38;;;7.20;96.00;;;;;;10132405;28;20155;-67
2021/12/08 11:06:15;;;;;;;5.07;2.20;;;7.30;96.00;;;;;;10129181;28;20105;-70
2021/12/08 11:11:22;;;;;;;3.72;2.25;;;7.30;96.00;;;;;;10129817;28;20089;-66
2021/12/08 11:16:29;;;;;;;3.40;2.03;;;7.30;95.90;;;;;;10126477;28;20115;-66
2021/12/08 11:21:32;;;;;;;4.25;2.50;;;7.30;95.90;;;;;;10123788;28;20094;-65
2021/12/08 11:26:25;;;;;;;5.25;2.47;;;7.30;95.90;;;;;;10127125;28;20044;-64
2021/12/08 11:31:17;;;;;;;3.80;1.90;;;7.30;95.80;;;;;;10128985;28;20040;-67
2021/12/08 11:36:21;;;;;;;4.03;1.80;;;7.40;95.80;;;;;;10122772;28;20378;-71
2021/12/08 11:41:33;;;;;;;3.75;2.17;;;7.40;95.90;;;;;;10127912;28;20020;-73
2021/12/08 11:46:24;;;;;;;4.10;2.40;;;7.40;95.80;;;;;;10138647;28;20029;-69
2021/12/08 11:51:15;;;;;;;3.13;2.05;;;7.40;95.80;;;;;;10127220;28;20032;-72
2021/12/08 11:56:26;;;;;;;3.70;1.83;;;7.50;95.80;;;;;;10127985;28;20024;-69
2021/12/08 12:01:17;;;;;;;4.63;2.50;;;7.50;95.80;;;;;;10124744;28;20048;-69
2021/12/08 12:06:08;;;;;;;6.07;2.40;;;7.50;95.60;;;;;;10131354;28;20186;-71
2021/12/08 12:11:01;;;;;;;5.57;2.60;;;7.50;95.70;;;;;;10125574;28;20040;-69
2021/12/08 12:15:53;;;;;;;4.22;2.28;;;7.60;95.70;;;;;;10107005;28;20028;-68
2021/12/08 12:20:52;;;;;;;8.52;2.90;;;7.50;95.70;;;;;;10124979;28;20069;-68
2021/12/08 12:26:01;;;;;;;5.93;2.42;;;7.70;95.60;;;;;;10111248;28;20029;-68
2021/12/08 12:31:10;;;;;;;6.47;2.53;;;7.70;95.60;;;;;;10113464;28;20036;-68
2021/12/08 12:36:00;;;;;;;4.68;2.38;;;7.70;95.60;;;;;;10111630;28;20543;-67
2021/12/08 12:40:51;;;;;;;4.47;1.83;;;7.80;95.50;;;;;;10122403;28;20032;-67
2021/12/08 12:45:47;;;;;;;5.18;2.85;;;7.80;95.50;;;;;;10110388;28;20128;-73
2021/12/08 12:50:53;;;;;;;8.60;3.15;;;7.80;95.40;;;;;;10127331;28;20035;-76
2021/12/08 12:55:46;;;;;;;4.22;2.50;;;7.80;95.40;;;;;;10116381;28;20151;-72
2021/12/08 13:00:39;;;;;;;3.58;2.10;;;7.70;95.40;;;;;;10118381;28;20110;-72
2021/12/08 13:05:55;;;;;;;3.67;2.20;;;7.80;95.50;;;;;;10109888;28;20040;-74
2021/12/08 13:10:49;;;;;;;3.13;2.15;;;7.80;95.40;;;;;;10119957;28;20309;-73
2021/12/08 13:15:45;;;;;;;4.55;2.17;;;7.80;95.40;;;;;;10119722;28;20044;-71
2021/12/08 13:20:45;;;;;;;3.03;1.63;;;7.70;95.40;;;;;;10114031;28;20040;-71
2021/12/08 13:25:59;;;;;;;5.80;2.58;;;7.70;95.40;;;;;;10113315;28;20039;-68
2021/12/08 13:30:59;;;;;;;5.50;1.98;;;7.70;95.40;;;;;;10124586;28;20476;-69
2021/12/08 13:35:56;;;;;;;2.75;2.00;;;7.80;95.20;;;;;;10126268;28;20038;-73
2021/12/08 13:40:53;;;;;;;4.03;2.15;;;7.70;95.30;;;;;;10123432;28;20071;-69
2021/12/08 13:45:44;;;;;;;5.13;2.00;;;7.60;95.30;;;;;;10121021;28;20040;-70
2021/12/08 13:50:37;;;;;;;3.53;1.67;;;7.70;95.30;;;;;;10128803;28;20024;-72
2021/12/08 13:55:29;;;;;;;2.95;2.13;;;7.50;95.40;;;;;;10131645;28;20376;-74
2021/12/08 14:00:22;;;;;;;4.00;1.85;;;7.50;95.40;;;;;;10127751;28;20027;-71
2021/12/08 14:05:47;;;;;;;6.47;1.98;;;7.60;95.40;;;;;;10117666;28;20128;-66
2021/12/08 14:10:41;;;;;;;4.70;2.08;;;7.60;95.30;;;;;;10113659;28;20298;-72
2021/12/08 14:15:41;;;;;;;5.75;2.67;;;7.60;95.20;;;;;;10119559;28;20060;-73
2021/12/08 14:20:34;;;;;;;4.22;2.20;;;7.60;95.10;;;;;;10118561;28;20139;-71
2021/12/08 14:25:41;;;;;;;5.43;2.78;;;7.60;95.20;;;;;;10122122;28;20047;-70
2021/12/08 14:30:31;;;;;;;5.82;1.83;;;7.60;95.20;;;;;;10121081;28;20033;-67
2021/12/08 14:35:22;;;;;;;3.33;1.98;;;7.60;95.20;;;;;;10118250;28;20461;-69
2021/12/08 14:40:13;;;;;;;2.85;1.75;;;7.60;95.20;;;;;;10122308;28;20368;-68
2021/12/08 14:45:10;;;;;;;2.60;1.63;;;7.50;95.30;;;;;;10119167;28;20036;-67
2021/12/08 14:50:07;;;;;;;6.78;1.77;;;7.40;95.30;;;;;;10124877;28;20459;-69
2021/12/08 14:54:59;;;;;;;4.20;1.42;;;7.40;95.20;;;;;;10130322;28;20085;-68
2021/12/08 14:59:59;;;;;;;3.17;1.50;;;7.40;95.20;;;;;;10128219;28;20024;-71
2021/12/08 15:04:51;;;;;;;2.40;1.73;;;7.30;95.20;;;;;;10125248;28;20039;-72
2021/12/08 15:09:59;;;;;;;4.43;2.33;;;7.30;95.30;;;;;;10121419;28;20120;-72
2021/12/08 15:14:50;;;;;;;6.78;2.45;;;7.30;95.20;;;;;;10128034;28;20029;-73
2021/12/08 15:19:53;;;;;;;2.90;1.65;;;7.20;95.20;;;;;;10125393;28;20052;-74
2021/12/08 15:24:43;;;;;;;6.22;1.67;;;7.20;95.30;;;;;;10123148;28;20028;-74
2021/12/08 15:29:40;;;;;;;3.90;1.80;;;7.10;95.30;;;;;;10128488;28;20124;-73
2021/12/08 15:34:35;;;;;;;4.10;1.60;;;7.20;95.20;;;;;;10127723;28;20028;-72
2021/12/08 15:39:28;;;;;;;2.70;1.42;;;7.10;95.20;;;;;;10122701;28;20027;-69
2021/12/08 15:44:20;;;;;;;4.97;2.03;;;7.20;95.10;;;;;;10131777;28;20051;-72
2021/12/08 15:49:16;;;;;;;3.20;1.90;;;7.10;95.10;;;;;;10129434;28;20119;-71
2021/12/08 15:54:07;;;;;;;3.35;1.70;;;7.10;95.20;;;;;;10115960;28;20044;-67
2021/12/08 15:59:03;;;;;;;3.75;2.00;;;7.10;95.20;;;;;;10133703;28;20024;-66
2021/12/08 16:04:00;;;;;;;3.45;1.85;;;7.10;95.30;;;;;;10138041;28;20356;-75
2021/12/08 16:08:57;;;;;;;8.82;2.85;;;7.00;95.20;;;;;;10127368;28;20037;-77
2021/12/08 16:13:48;;;;;;;3.78;1.55;;;7.00;95.30;;;;;;10120259;28;20033;-73
2021/12/08 16:18:39;;;;;;;3.25;1.73;;;7.00;95.30;;;;;;10121875;28;20075;-77
2021/12/08 16:23:30;;;;;;;6.50;3.30;;;7.00;95.40;;;;;;10126957;28;20024;-71
2021/12/08 16:28:20;;;;;;;6.60;3.50;;;7.00;95.20;;;;;;10131049;28;20039;-75
2021/12/08 16:33:12;;;;;;;6.88;2.40;;;7.00;95.20;;;;;;10126272;28;20025;-71
2021/12/08 16:38:04;;;;;;;5.88;2.50;;;7.00;95.20;;;;;;10132899;28;20045;-76
2021/12/08 16:43:00;;;;;;;4.18;2.60;;;7.00;95.40;;;;;;10147570;28;21111;-69
2021/12/08 16:47:52;;;;;;;4.38;2.70;;;6.90;95.50;;;;;;10130426;28;20035;-74
2021/12/08 16:52:43;;;;;;;4.13;2.45;;;6.90;95.50;;;;;;10124217;28;20150;-66
2021/12/08 16:57:37;;;;;;;3.75;2.33;;;7.00;95.40;;;;;;10124459;28;20123;-67
2021/12/08 17:02:28;;;;;;;6.85;3.17;;;7.00;95.40;;;;;;10123885;28;20025;-73
2021/12/08 17:07:19;;;;;;;5.07;3.00;;;6.90;95.50;;;;;;10139555;28;20044;-67
2021/12/08 17:12:10;;;;;;;6.13;3.50;;;7.00;95.50;;;;;;10123743;28;20072;-77
2021/12/08 17:17:01;;;;;;;8.25;4.22;;;6.90;95.50;;;;;;10138717;28;20029;-63
2021/12/08 17:21:51;;;;;;;5.07;3.42;;;6.90;95.50;;;;;;10119864;28;20040;-74
2021/12/08 17:26:43;;;;;;;7.78;3.97;;;6.80;95.70;;;;;;10122986;28;20040;-71
2021/12/08 17:31:34;;;;;;;7.93;3.95;;;6.80;95.70;;;;;;10129139;28;20499;-69
2021/12/08 17:36:25;;;;;;;9.27;3.95;;;6.70;95.80;;;;;;10126776;28;20070;-72
2021/12/08 17:41:16;;;;;;;6.82;4.32;;;6.70;95.80;;;;;;10118415;28;20029;-71
2021/12/08 17:46:07;;;;;;;8.18;4.70;;;6.80;95.80;;;;;;10124844;28;20044;-70
2021/12/08 17:51:03;;;;;;;10.63;5.47;;;6.80;95.80;;;;;;10121510;28;20364;-70
2021/12/08 17:55:54;;;;;;;6.18;4.20;;;6.80;95.80;;;;;;10120445;28;20562;-68
2021/12/08 18:00:48;;;;;;;8.32;4.80;;;6.70;95.90;;;;;;10118073;28;20158;-71
2021/12/08 18:05:39;;;;;;;9.77;5.43;;;6.70;95.90;;;;;;10107618;28;20067;-71
2021/12/08 18:10:31;;;;;;;7.28;4.53;;;6.80;95.80;;;;;;10131041;28;20057;-75
2021/12/08 18:15:22;;;;;;;8.60;4.97;;;6.80;95.80;;;;;;10139491;28;20032;-74
2021/12/08 18:20:22;;;;;;;11.18;4.78;;;6.80;95.70;;;;;;10132575;28;20406;-70
2021/12/08 18:25:14;;;;;;;10.82;5.25;;;6.70;95.80;;;;;;10130900;28;20036;-74
2021/12/08 18:30:07;;;;;;;12.05;5.97;;;6.70;95.90;;;;;;10128008;28;20024;-71
2021/12/08 18:34:59;;;;;;;9.27;5.28;;;6.70;95.90;;;;;;10130501;28;20526;-69
2021/12/08 18:39:50;;;;;;;10.70;5.68;;;6.70;95.80;;;;;;10127300;28;20029;-66
2021/12/08 18:44:40;;;;;;;11.80;5.55;;;6.70;95.80;;;;;;10126000;28;20340;-71
2021/12/08 18:49:31;;;;;;;9.55;6.07;;;6.60;95.90;;;;;;10125061;28;20364;-68
2021/12/08 18:54:22;;;;;;;12.32;4.72;;;6.60;96.00;;;;;;10118835;28;20551;-72
2021/12/08 18:59:17;;;;;;;11.85;6.40;;;6.50;96.00;;;;;;10113187;28;20031;-73
2021/12/08 19:04:08;;;;;;;11.23;5.97;;;6.60;95.90;;;;;;10117894;28;20032;-70
2021/12/08 19:08:59;;;;;;;11.93;6.45;;;6.70;95.80;;;;;;10118702;28;20025;-70
2021/12/08 19:13:51;;;;;;;14.40;6.97;;;6.60;95.80;;;;;;10118491;28;20395;-69
2021/12/08 19:18:42;;;;;;;11.60;5.53;;;6.60;95.90;;;;;;10119651;28;20114;-68
2021/12/08 19:23:34;;;;;;;9.15;5.55;;;6.60;95.90;;;;;;10126008;28;20036;-72
2021/12/08 19:28:25;;;;;;;11.32;6.15;;;6.50;95.90;;;;;;10116876;28;20037;-70
2021/12/08 19:33:16;;;;;;;12.70;6.65;;;6.60;95.90;;;;;;10115974;28;20028;-74
2021/12/08 19:38:10;;;;;;;8.85;5.72;;;6.60;95.90;;;;;;10125644;28;20025;-70
2021/12/08 19:43:01;;;;;;;8.63;6.05;;;6.60;95.90;;;;;;10115257;28;20040;-70
2021/12/08 19:47:55;;;;;;;10.13;4.55;;;6.50;96.00;;;;;;10120582;28;20412;-69
2021/12/08 19:52:45;;;;;;;12.40;4.90;;;6.50;96.00;;;;;;10132012;28;20016;-68
2021/12/08 19:57:36;;;;;;;10.88;6.50;;;6.30;96.10;;;;;;10114651;28;20977;-73
2021/12/08 20:02:27;;;;;;;11.52;6.03;;;6.30;96.20;;;;;;10114696;28;20452;-72
2021/12/08 20:07:18;;;;;;;10.32;6.20;;;6.30;96.20;;;;;;10119292;28;20032;-71
2021/12/08 20:12:10;;;;;;;17.88;6.78;;;6.40;96.30;;;;;;10106846;28;20036;-72
2021/12/08 20:17:02;;;;;;;11.40;6.25;;;6.50;96.20;;;;;;10114439;28;20025;-72
2021/12/08 20:21:53;;;;;;;9.85;5.32;;;6.50;96.20;;;;;;10118399;28;20045;-72
2021/12/08 20:26:43;;;;;;;9.68;6.13;;;6.60;96.20;;;;;;10120743;28;20406;-70
2021/12/08 20:31:34;;;;;;;16.02;6.85;;;6.60;96.20;;;;;;10125867;28;20028;-71
2021/12/08 20:36:29;;;;;;;12.50;6.25;;;6.60;96.20;;;;;;10117006;28;20036;-73
2021/12/08 20:41:23;;;;;;;10.68;6.68;;;6.50;96.20;;;;;;10112422;28;20548;-71
2021/12/08 20:46:15;;;;;;;18.98;8.02;;;6.30;96.50;;;;;;10122023;28;20137;-72
2021/12/08 20:51:08;;;;;;;12.63;6.90;;;6.30;96.40;;;;;;10111945;28;20439;-70
2021/12/08 20:56:00;;;;;;;13.55;6.38;;;6.30;96.30;;;;;;10109095;28;20123;-73
2021/12/08 21:00:55;;;;;;;10.85;5.72;;;6.30;96.30;;;;;;10111082;28;20029;-73
2021/12/08 21:05:49;;;;;;;12.93;6.33;;;6.20;96.30;;;;;;10118811;28;20221;-73
2021/12/08 21:10:40;;;;;;;15.18;6.47;;;6.20;96.20;;;;;;10110893;28;20033;-73
2021/12/08 21:15:32;;;;;;;16.65;5.40;;;6.10;96.10;;;;;;10109168;28;20077;-73
2021/12/08 21:20:26;;;;;;;11.50;5.50;;;6.20;96.20;;;;;;10115254;28;20566;-71
2021/12/08 21:25:17;;;;;;;9.88;6.40;;;6.20;96.30;;;;;;10119597;28;20263;-74
2021/12/08 21:30:08;;;;;;;15.30;5.90;;;6.20;96.30;;;;;;10111589;28;20021;-74
2021/12/08 21:35:06;;;;;;;9.32;5.55;;;6.30;96.60;;;;;;10116152;28;20499;-74
2021/12/08 21:39:57;;;;;;;12.43;5.68;;;6.30;96.30;;;;;;10123137;28;20415;-74
2021/12/08 21:44:48;;;;;;;10.35;4.65;;;6.30;96.10;;;;;;10116823;28;20047;-69
2021/12/08 21:49:39;;;;;;;12.68;5.35;;;6.30;96.20;;;;;;10122904;28;20052;-69
2021/12/08 21:54:30;;;;;;;9.75;5.22;;;6.30;96.20;;;;;;10117358;28;20403;-68
2021/12/08 21:59:21;;;;;;;11.05;5.20;;;6.30;96.00;;;;;;10123010;28;20019;-70
2021/12/08 22:04:13;;;;;;;7.93;4.70;;;6.30;96.00;;;;;;10134094;28;20368;-68
2021/12/08 22:09:07;;;;;;;9.45;4.45;;;6.20;96.00;;;;;;10128321;28;20304;-68
2021/12/08 22:13:58;;;;;;;5.28;3.80;;;6.20;95.90;;;;;;10118435;28;20051;-68
2021/12/08 22:18:49;;;;;;;8.45;4.60;;;6.30;95.90;;;;;;10124657;28;20063;-68
2021/12/08 22:23:46;;;;;;;11.10;4.97;;;6.30;95.90;;;;;;10116903;28;20028;-69
2021/12/08 22:28:36;;;;;;;6.68;4.57;;;6.30;95.80;;;;;;10121306;28;20115;-68
2021/12/08 22:33:28;;;;;;;11.05;5.00;;;6.40;95.70;;;;;;10122739;28;20119;-69
2021/12/08 22:38:19;;;;;;;10.27;3.90;;;6.50;95.60;;;;;;10112391;28;20017;-69
2021/12/08 22:43:09;;;;;;;7.82;4.00;;;6.40;95.60;;;;;;10130587;28;20024;-68
2021/12/08 22:48:00;;;;;;;8.68;3.28;;;6.50;95.50;;;;;;10121690;28;20554;-69
2021/12/08 22:52:52;;;;;;;6.88;4.32;;;6.40;95.60;;;;;;10121275;28;20049;-69
2021/12/08 22:57:45;;;;;;;10.77;4.28;;;6.50;95.50;;;;;;10135402;28;20510;-69
2021/12/08 23:02:37;;;;;;;8.48;3.72;;;6.30;95.50;;;;;;10125200;28;20021;-69
2021/12/08 23:07:27;;;;;;;8.27;3.95;;;6.30;95.50;;;;;;10120196;28;20059;-69
2021/12/08 23:12:18;;;;;;;8.38;4.32;;;6.20;95.50;;;;;;10129880;28;20028;-69
2021/12/08 23:17:08;;;;;;;6.88;3.30;;;6.30;95.50;;;;;;10130061;28;20035;-68
2021/12/08 23:21:59;;;;;;;6.70;3.22;;;6.30;95.40;;;;;;10118912;28;20041;-69
2021/12/08 23:26:50;;;;;;;5.20;2.70;;;6.40;95.40;;;;;;10113222;28;20037;-69
2021/12/08 23:31:43;;;;;;;8.77;2.72;;;6.30;95.30;;;;;;10117124;28;20024;-69
2021/12/08 23:36:49;;;;;;;4.25;2.58;;;6.20;95.30;;;;;;10127399;28;20094;-69
2021/12/08 23:41:41;;;;;;;6.28;3.67;;;6.10;95.40;;;;;;10123524;28;20028;-68
2021/12/08 23:46:32;;;;;;;7.55;3.67;;;6.10;95.50;;;;;;10113840;28;20037;-69
2021/12/08 23:51:23;;;;;;;3.88;2.47;;;6.10;95.30;;;;;;10121830;28;20466;-70
2021/12/08 23:56:13;;;;;;;4.22;2.35;;;6.10;95.20;;;;;;10133327;28;20029;-69
